Time;durP1;ratioP1;P1;durP2;ratioP2;P2;SDS_P1;SDS_P2;PMS_P1;PMS_P2;Temp;Humidity;BMP_temperature;BMP_pressure;BME280_temperature;BME280_humidity;BME280_pressure;Samples;Min_cycle;Max_cycle;Signal;HPM_P1;HPM_P2
2022/01/07 00:00:34;;;;;;;0.80;0.70;;;-4.40;1.40;;;-3.87;100.00;95650.47;647142;216;32424;-75
2022/01/07 00:03:18;;;;;;;0.40;0.30;;;-4.40;1.40;;;-3.90;100.00;95647.08;646825;212;32116;-75
2022/01/07 00:05:59;;;;;;;0.57;0.57;;;-4.50;1.40;;;-3.91;100.00;95645.09;643847;216;33539;-76
2022/01/07 00:08:39;;;;;;;1.40;1.10;;;-4.50;1.40;;;-3.85;100.00;95648.36;644952;216;42681;-77
2022/01/07 00:11:21;;;;;;;0.70;0.70;;;-4.30;1.40;;;-3.79;100.00;95646.98;648205;212;31513;-76
2022/01/07 00:14:05;;;;;;;0.80;0.50;;;-4.20;1.40;;;-3.57;100.00;95650.41;641986;217;32133;-74
2022/01/07 00:16:47;;;;;;;1.30;1.20;;;-4.00;1.40;;;-3.43;100.00;95650.56;647809;216;31642;-76
2022/01/07 00:19:29;;;;;;;0.40;0.30;;;-3.80;1.40;;;-3.34;100.00;95648.23;648688;216;31492;-75
2022/01/07 00:22:11;;;;;;;3.80;0.80;;;-3.70;1.40;;;-3.28;100.00;95652.16;646277;215;31459;-74
2022/01/07 00:24:53;;;;;;;0.40;0.40;;;-3.70;1.40;;;-3.18;100.00;95649.19;646765;216;31692;-74
2022/01/07 00:27:34;;;;;;;1.10;0.80;;;-3.60;1.40;;;-3.17;100.00;95651.61;647604;216;31573;-76
2022/01/07 00:30:16;;;;;;;1.00;0.80;;;-3.60;1.40;;;-3.14;100.00;95652.53;619955;226;31918;-75
2022/01/07 00:32:58;;;;;;;0.90;0.45;;;-3.50;1.40;;;-3.21;100.00;95647.47;646345;216;31558;-77
2022/01/07 00:35:52;;;;;;;2.78;0.70;;;-3.70;1.40;;;-3.24;100.00;95644.44;647129;216;31622;-77
2022/01/07 00:38:33;;;;;;;0.70;0.70;;;-3.90;1.40;;;-3.31;100.00;95636.63;647279;216;42161;-74
2022/01/07 00:41:15;;;;;;;0.70;0.70;;;-4.00;1.40;;;-3.45;100.00;95630.19;646965;216;31486;-77
2022/01/07 00:43:57;;;;;;;3.10;0.60;;;-4.10;1.40;;;-3.52;100.00;95625.70;645922;216;31724;-75
2022/01/07 00:46:38;;;;;;;0.40;0.40;;;-4.30;1.40;;;-3.53;100.00;95626.41;647433;212;32151;-76
2022/01/07 00:49:22;;;;;;;0.40;0.40;;;-4.40;1.40;;;-3.61;100.00;95621.03;647701;216;32189;-75
2022/01/07 00:52:01;;;;;;;1.20;0.60;;;-4.50;1.40;;;-3.74;100.00;95613.43;647334;212;32380;-74
2022/01/07 00:54:46;;;;;;;0.50;0.50;;;-4.60;1.40;;;-3.82;100.00;95609.45;649547;216;31524;-76
2022/01/07 00:57:28;;;;;;;0.50;0.50;;;-4.80;1.40;;;-3.82;100.00;95602.99;648024;212;31478;-76
2022/01/07 01:00:10;;;;;;;1.42;0.95;;;-4.70;1.40;;;-3.96;100.00;95604.80;650416;216;31564;-77
2022/01/07 01:02:52;;;;;;;0.90;0.70;;;-4.80;1.40;;;-4.07;100.00;95598.03;648750;216;31552;-76
2022/01/07 01:05:33;;;;;;;0.77;0.77;;;-4.90;1.40;;;-4.18;100.00;95604.86;647237;216;31524;-77
2022/01/07 01:08:18;;;;;;;0.55;0.45;;;-4.90;1.40;;;-4.26;100.00;95615.47;648315;216;31514;-74
2022/01/07 01:11:00;;;;;;;0.50;0.50;;;-5.00;1.40;;;-4.12;100.00;95613.56;646965;212;31753;-77
2022/01/07 01:13:41;;;;;;;0.60;0.60;;;-5.00;1.40;;;-4.25;100.00;95617.31;646626;216;31596;-77
2022/01/07 01:16:23;;;;;;;0.80;0.70;;;-4.90;1.40;;;-4.27;100.00;95610.56;645765;212;31556;-75
2022/01/07 01:19:05;;;;;;;0.40;0.30;;;-4.80;1.40;;;-4.17;100.00;95608.66;647980;216;31978;-77
2022/01/07 01:21:46;;;;;;;0.90;0.90;;;-4.80;1.40;;;-4.08;100.00;95609.50;648905;216;32019;-77
2022/01/07 01:24:28;;;;;;;0.40;0.40;;;-4.80;1.40;;;-4.00;100.00;95598.41;624168;222;31955;-76
2022/01/07 01:27:10;;;;;;;0.52;0.52;;;-4.70;1.40;;;-4.08;100.00;95594.70;620244;222;31937;-77
2022/01/07 01:29:55;;;;;;;0.80;0.80;;;-4.70;1.40;;;-4.11;100.00;95588.44;646976;216;31662;-75
2022/01/07 01:32:36;;;;;;;0.62;0.52;;;-4.70;1.40;;;-4.13;100.00;95588.00;620470;225;31873;-74
2022/01/07 01:35:51;;;;;;;0.80;0.50;;;-4.70;1.40;;;-4.13;100.00;95589.69;647954;212;31496;-74
2022/01/07 01:38:33;;;;;;;0.40;0.30;;;-4.60;1.40;;;-4.03;100.00;95580.77;646021;212;31516;-74
2022/01/07 01:41:14;;;;;;;1.20;0.60;;;-4.60;1.40;;;-3.96;100.00;95585.83;617153;222;31906;-77
2022/01/07 01:43:56;;;;;;;0.88;0.62;;;-4.50;1.40;;;-4.06;100.00;95586.44;646133;212;31508;-74
2022/01/07 01:46:38;;;;;;;0.50;0.40;;;-4.50;1.40;;;-4.04;100.00;95581.78;646078;216;31494;-76
2022/01/07 01:49:19;;;;;;;0.70;0.43;;;-4.50;1.40;;;-3.91;100.00;95579.86;618683;226;31847;-74
2022/01/07 01:52:05;;;;;;;1.10;0.80;;;-4.40;1.40;;;-3.88;100.00;95574.24;645437;212;32042;-74
2022/01/07 01:54:47;;;;;;;1.20;0.68;;;-4.40;1.40;;;-3.87;100.00;95574.17;647545;216;42862;-76
2022/01/07 01:57:28;;;;;;;0.47;0.47;;;-4.40;1.40;;;-3.86;100.00;95562.38;646048;212;32965;-76
2022/01/07 02:00:13;;;;;;;0.90;0.60;;;-4.40;1.40;;;-3.94;100.00;95560.44;646539;212;42119;-76
2022/01/07 02:02:55;;;;;;;0.70;0.50;;;-4.50;1.40;;;-3.95;100.00;95552.95;619287;222;32491;-75
2022/01/07 02:05:37;;;;;;;0.70;0.52;;;-4.50;1.40;;;-3.96;100.00;95553.02;644888;216;31596;-77
2022/01/07 02:08:18;;;;;;;0.60;0.60;;;-4.50;1.40;;;-3.97;100.00;95554.14;646791;216;31601;-74
2022/01/07 02:11:00;;;;;;;0.70;0.70;;;-4.50;1.40;;;-3.96;100.00;95562.70;617988;226;32221;-76
2022/01/07 02:13:48;;;;;;;0.80;0.80;;;-4.50;1.40;;;-4.03;100.00;95566.27;646262;216;31499;-77
2022/01/07 02:16:27;;;;;;;2.10;1.10;;;-4.70;1.40;;;-4.07;100.00;95567.61;632213;220;31855;-74
2022/01/07 02:19:09;;;;;;;0.70;0.70;;;-4.80;1.40;;;-4.08;100.00;95571.55;647591;216;31494;-74
2022/01/07 02:21:50;;;;;;;0.65;0.65;;;-4.90;1.40;;;-4.38;100.00;95569.69;619432;226;32078;-75
2022/01/07 02:24:38;;;;;;;0.60;0.50;;;-5.20;1.40;;;-4.53;100.00;95572.39;651410;216;31505;-81
2022/01/07 02:27:26;;;;;;;2.00;0.80;;;-5.40;1.40;;;-4.50;100.00;95570.13;645896;212;31875;-77
2022/01/07 02:30:09;;;;;;;0.40;0.40;;;-5.20;1.40;;;-4.62;100.00;95568.11;649720;212;31679;-74
2022/01/07 02:32:54;;;;;;;0.50;0.50;;;-5.30;1.40;;;-4.76;100.00;95561.25;644613;212;31681;-77
2022/01/07 02:35:51;;;;;;;0.60;0.47;;;-5.50;1.40;;;-4.90;100.00;95566.13;648554;216;31548;-77
2022/01/07 02:38:33;;;;;;;0.43;0.40;;;-5.70;1.40;;;-4.96;100.00;95566.52;618106;226;31946;-77
2022/01/07 02:41:14;;;;;;;0.90;0.90;;;-5.70;1.40;;;-4.87;100.00;95566.72;621101;222;31838;-76
2022/01/07 02:43:56;;;;;;;0.50;0.50;;;-5.60;1.40;;;-4.92;100.00;95556.58;647212;212;42158;-77
2022/01/07 02:46:41;;;;;;;5.60;0.60;;;-5.60;1.40;;;-4.92;100.00;95552.52;647294;216;32090;-75
2022/01/07 02:49:22;;;;;;;0.40;0.40;;;-5.60;1.40;;;-5.01;100.00;95553.91;647273;216;31852;-75
2022/01/07 02:52:04;;;;;;;0.98;0.75;;;-5.80;1.40;;;-4.73;100.00;95551.91;646568;216;42163;-77
2022/01/07 02:54:46;;;;;;;1.00;0.70;;;-5.40;1.40;;;-4.79;100.00;95553.68;645776;216;31834;-77
2022/01/07 02:57:28;;;;;;;0.90;0.70;;;-5.60;1.40;;;-4.79;100.00;95557.02;647535;216;31562;-75
2022/01/07 03:00:11;;;;;;;1.10;1.00;;;-5.60;1.40;;;-4.79;100.00;95549.49;645772;216;31708;-77
2022/01/07 03:02:53;;;;;;;0.90;0.50;;;-5.50;1.40;;;-4.71;100.00;95546.09;644990;216;31549;-77
2022/01/07 03:05:34;;;;;;;2.00;0.70;;;-5.20;1.40;;;-4.71;100.00;95538.55;618317;226;42532;-77
2022/01/07 03:08:16;;;;;;;0.60;0.50;;;-5.20;1.40;;;-4.67;100.00;95538.12;618629;226;31908;-75
2022/01/07 03:10:58;;;;;;;0.80;0.80;;;-5.20;1.40;;;-4.72;100.00;95534.20;646351;216;31581;-75
2022/01/07 03:13:41;;;;;;;0.60;0.60;;;-5.30;1.40;;;-4.61;100.00;95531.52;619424;226;42522;-81
2022/01/07 03:16:25;;;;;;;6.85;0.88;;;-5.00;1.40;;;-4.45;100.00;95537.81;649243;216;31592;-74
2022/01/07 03:19:10;;;;;;;1.00;0.68;;;-4.80;1.40;;;-4.38;100.00;95532.77;646966;213;31577;-75
2022/01/07 03:21:51;;;;;;;0.40;0.40;;;-4.80;1.40;;;-4.42;100.00;95533.05;647708;216;42148;-75
2022/01/07 03:24:38;;;;;;;0.60;0.60;;;-4.80;1.40;;;-4.44;100.00;95529.97;646622;212;31512;-77
2022/01/07 03:27:18;;;;;;;1.52;0.75;;;-4.80;1.40;;;-4.40;100.00;95527.57;647802;216;42364;-75
2022/01/07 03:29:59;;;;;;;0.70;0.50;;;-4.80;1.40;;;-4.39;100.00;95512.74;646796;216;42593;-75
2022/01/07 03:32:41;;;;;;;0.70;0.70;;;-4.80;1.40;;;-4.42;100.00;95505.80;620233;226;42726;-78
2022/01/07 03:35:51;;;;;;;1.20;0.82;;;-4.90;1.40;;;-4.50;100.00;95506.33;647509;216;31581;-77
2022/01/07 03:38:40;;;;;;;2.00;0.77;;;-5.00;1.40;;;-4.51;100.00;95509.98;647958;216;31924;-81
2022/01/07 03:41:24;;;;;;;0.77;0.68;;;-4.90;1.40;;;-4.45;100.00;95513.25;647155;216;31538;-77
2022/01/07 03:44:06;;;;;;;1.60;0.60;;;-4.80;1.40;;;-4.47;100.00;95514.13;617580;226;32041;-74
2022/01/07 03:46:48;;;;;;;1.90;0.80;;;-4.90;1.40;;;-4.47;100.00;95515.80;648914;216;31694;-77
2022/01/07 03:49:32;;;;;;;0.47;0.47;;;-4.90;1.40;;;-4.50;100.00;95510.90;622082;222;42700;-77
2022/01/07 03:52:14;;;;;;;0.70;0.50;;;-4.90;1.40;;;-4.40;100.00;95511.26;650397;216;31593;-77
2022/01/07 03:54:56;;;;;;;0.75;0.75;;;-4.80;1.40;;;-4.35;100.00;95506.11;647820;216;32068;-77
2022/01/07 03:57:38;;;;;;;0.40;0.40;;;-4.80;1.40;;;-4.35;100.00;95502.63;650088;216;31959;-74
2022/01/07 04:00:25;;;;;;;0.90;0.70;;;-4.80;1.40;;;-4.24;100.00;95500.97;646492;212;31496;-76
2022/01/07 04:03:07;;;;;;;0.50;0.30;;;-4.70;1.40;;;-4.25;100.00;95503.67;647336;216;31555;-75
2022/01/07 04:05:49;;;;;;;3.87;0.88;;;-4.70;1.40;;;-4.31;100.00;95505.58;647570;212;31764;-75
2022/01/07 04:08:33;;;;;;;2.30;0.60;;;-4.70;1.40;;;-4.29;100.00;95507.31;649234;216;31888;-81
2022/01/07 04:11:20;;;;;;;0.40;0.40;;;-4.70;1.40;;;-4.42;100.00;95502.79;647544;212;31650;-76
2022/01/07 04:14:02;;;;;;;3.30;0.80;;;-4.90;1.40;;;-4.50;100.00;95500.88;618782;226;31865;-75
2022/01/07 04:16:44;;;;;;;0.90;0.50;;;-5.00;1.40;;;-4.63;100.00;95500.56;620727;225;31900;-75
2022/01/07 04:19:27;;;;;;;1.50;0.50;;;-5.10;1.40;;;-4.72;100.00;95505.72;647502;216;31532;-80
2022/01/07 04:22:15;;;;;;;3.90;0.80;;;-5.20;1.40;;;-4.62;100.00;95503.25;645613;216;31830;-77
2022/01/07 04:24:57;;;;;;;1.10;0.70;;;-5.00;1.40;;;-4.53;100.00;95509.08;621261;226;42550;-77
2022/01/07 04:27:38;;;;;;;0.75;0.47;;;-4.90;1.40;;;-4.51;100.00;95514.97;648135;216;35289;-74
2022/01/07 04:30:20;;;;;;;1.00;0.62;;;-5.00;1.40;;;-4.49;100.00;95521.14;645484;216;31534;-77
2022/01/07 04:35:54;;;;;;;1.70;0.50;;;-5.30;1.40;;;-4.81;100.00;95527.33;621185;226;32077;-77
2022/01/07 04:38:35;;;;;;;0.90;0.60;;;-5.50;1.40;;;-4.95;100.00;95524.53;646331;212;31582;-76
2022/01/07 04:41:17;;;;;;;1.10;0.80;;;-5.70;1.40;;;-5.06;100.00;95521.94;645446;212;31542;-77
2022/01/07 04:43:59;;;;;;;1.20;1.10;;;-5.80;1.40;;;-5.08;100.00;95519.28;647647;216;31536;-75
2022/01/07 04:46:47;;;;;;;0.50;0.50;;;-5.80;1.40;;;-5.10;100.00;95521.19;619865;226;42542;-81
2022/01/07 04:49:34;;;;;;;0.60;0.40;;;-5.60;1.40;;;-4.99;100.00;95516.70;646906;216;42180;-74
2022/01/07 04:52:17;;;;;;;1.65;0.55;;;-5.60;1.40;;;-4.95;100.00;95523.26;649480;212;32079;-74
2022/01/07 04:54:58;;;;;;;0.95;0.50;;;-5.40;1.40;;;-4.84;100.00;95520.73;649527;216;32306;-76
2022/01/07 04:57:40;;;;;;;0.50;0.40;;;-5.20;1.40;;;-4.73;100.00;95518.44;647580;212;31652;-75
2022/01/07 05:00:24;;;;;;;0.70;0.50;;;-5.10;1.40;;;-4.62;100.00;95516.64;649053;216;31517;-77
2022/01/07 05:03:05;;;;;;;0.50;0.40;;;-5.00;1.40;;;-4.61;100.00;95520.42;647398;212;31486;-77
2022/01/07 05:05:55;;;;;;;0.40;0.40;;;-5.00;1.40;;;-4.66;100.00;95521.55;646604;212;31704;-74
2022/01/07 05:08:30;;;;;;;0.50;0.40;;;-5.10;1.40;;;-4.68;100.00;95515.62;647894;216;31667;-80
2022/01/07 05:11:18;;;;;;;0.70;0.70;;;-5.10;1.40;;;-4.79;100.00;95514.03;647611;216;42771;-74
2022/01/07 05:13:59;;;;;;;0.50;0.40;;;-5.20;1.40;;;-4.84;100.00;95508.41;645837;216;31697;-77
2022/01/07 05:16:41;;;;;;;1.20;0.70;;;-5.30;1.40;;;-4.92;100.00;95512.97;648943;216;31684;-75
2022/01/07 05:19:23;;;;;;;1.60;0.70;;;-5.30;1.40;;;-5.01;100.00;95513.64;630067;222;42383;-77
2022/01/07 05:22:05;;;;;;;0.45;0.37;;;-5.40;1.40;;;-5.04;100.00;95518.88;646794;216;31506;-77
2022/01/07 05:24:46;;;;;;;0.40;0.40;;;-5.40;1.40;;;-4.97;100.00;95520.60;646693;216;31687;-77
2022/01/07 05:27:28;;;;;;;0.43;0.37;;;-5.30;1.40;;;-4.97;100.00;95512.58;647238;212;31671;-74
2022/01/07 05:30:12;;;;;;;0.60;0.60;;;-5.30;1.40;;;-4.91;100.00;95518.58;644437;212;31560;-76
2022/01/07 05:32:53;;;;;;;0.70;0.60;;;-5.20;1.40;;;-4.82;100.00;95519.97;620997;226;31980;-74
2022/01/07 05:35:51;;;;;;;0.40;0.40;;;-5.10;1.40;;;-4.85;100.00;95521.86;647570;216;31708;-74
2022/01/07 05:38:36;;;;;;;0.80;0.70;;;-5.20;1.40;;;-4.89;100.00;95524.12;646536;216;31490;-74
2022/01/07 05:41:18;;;;;;;2.30;0.70;;;-5.30;1.40;;;-4.99;100.00;95527.37;645057;212;31481;-77
2022/01/07 05:44:00;;;;;;;0.52;0.52;;;-5.40;1.40;;;-5.09;100.00;95526.16;649848;216;31498;-75
2022/01/07 05:46:42;;;;;;;0.40;0.30;;;-5.40;1.40;;;-5.10;100.00;95525.63;618500;222;32498;-77
2022/01/07 05:49:24;;;;;;;0.40;0.40;;;-5.50;1.40;;;-5.08;100.00;95529.14;650001;216;42711;-78
2022/01/07 05:52:09;;;;;;;1.10;1.00;;;-5.60;1.40;;;-5.11;100.00;95529.63;648698;216;31822;-77
2022/01/07 05:54:50;;;;;;;0.82;0.55;;;-5.60;1.40;;;-5.17;100.00;95528.59;645913;216;31692;-77
2022/01/07 05:57:32;;;;;;;1.30;0.40;;;-5.60;1.40;;;-5.20;100.00;95531.89;642910;217;31522;-76
2022/01/07 06:00:14;;;;;;;0.50;0.50;;;-5.70;1.40;;;-5.29;100.00;95538.73;646801;216;42122;-74
2022/01/07 06:02:58;;;;;;;1.40;0.70;;;-5.70;1.40;;;-5.36;100.00;95534.66;646796;216;31526;-75
2022/01/07 06:05:40;;;;;;;0.55;0.43;;;-5.80;1.40;;;-5.34;100.00;95540.93;647514;212;32147;-75
2022/01/07 06:08:22;;;;;;;0.93;0.60;;;-5.80;1.40;;;-5.24;100.00;95538.62;649274;212;42741;-75
2022/01/07 06:11:03;;;;;;;2.35;0.70;;;-5.70;1.40;;;-5.20;100.00;95539.79;648004;212;42726;-77
2022/01/07 06:13:45;;;;;;;0.50;0.43;;;-5.60;1.40;;;-5.22;100.00;95535.27;647017;212;32142;-77
2022/01/07 06:16:27;;;;;;;0.50;0.50;;;-5.70;1.40;;;-5.24;100.00;95539.86;647445;212;42741;-77
2022/01/07 06:19:09;;;;;;;1.00;0.60;;;-5.80;1.40;;;-5.22;100.00;95539.36;650754;212;31562;-76
2022/01/07 06:21:50;;;;;;;0.40;0.30;;;-5.80;1.40;;;-5.22;100.00;95534.13;644535;216;32339;-75
2022/01/07 06:24:32;;;;;;;0.60;0.50;;;-5.80;1.40;;;-5.16;100.00;95534.52;648893;216;31459;-77
2022/01/07 06:27:14;;;;;;;0.50;0.40;;;-5.70;1.40;;;-5.11;100.00;95525.06;645773;216;42459;-75
2022/01/07 06:29:58;;;;;;;0.50;0.40;;;-5.50;1.40;;;-5.05;100.00;95531.89;649032;212;42139;-77
2022/01/07 06:32:42;;;;;;;1.00;1.00;;;-5.50;1.40;;;-5.04;100.00;95531.22;647685;216;31541;-79
2022/01/07 06:35:51;;;;;;;2.17;0.88;;;-5.50;1.40;;;-5.03;100.00;95536.26;647159;216;31530;-77
2022/01/07 06:38:40;;;;;;;0.47;0.47;;;-5.40;1.40;;;-4.94;100.00;95538.92;647033;216;42353;-79
2022/01/07 06:41:24;;;;;;;3.10;0.93;;;-5.40;1.40;;;-4.92;100.00;95533.59;648043;212;42105;-77
2022/01/07 06:44:06;;;;;;;0.50;0.50;;;-5.30;1.40;;;-4.87;100.00;95537.81;645895;216;42187;-77
2022/01/07 06:46:47;;;;;;;1.80;0.90;;;-5.20;1.40;;;-4.79;100.00;95525.34;648593;216;42712;-76
2022/01/07 06:49:29;;;;;;;1.40;0.70;;;-5.20;1.40;;;-4.71;100.00;95520.30;645392;216;42780;-77
2022/01/07 06:52:17;;;;;;;1.40;0.80;;;-5.00;1.40;;;-4.69;100.00;95522.39;650321;216;42305;-79
2022/01/07 06:55:05;;;;;;;0.95;0.52;;;-5.10;1.40;;;-4.69;100.00;95520.42;645403;216;31613;-75
2022/01/07 06:57:47;;;;;;;0.40;0.30;;;-5.00;1.40;;;-4.69;100.00;95512.39;619497;226;31998;-77
2022/01/07 07:00:34;;;;;;;0.70;0.43;;;-5.10;1.40;;;-4.65;100.00;95515.02;647693;212;42180;-78
2022/01/07 07:03:22;;;;;;;0.40;0.40;;;-5.00;1.40;;;-4.61;100.00;95519.91;648405;212;42197;-76
2022/01/07 07:06:10;;;;;;;0.50;0.40;;;-4.90;1.40;;;-4.61;100.00;95538.21;632308;220;31863;-78
2022/01/07 07:08:51;;;;;;;0.40;0.30;;;-4.90;1.40;;;-4.55;100.00;95538.03;647967;216;32663;-79
2022/01/07 07:11:33;;;;;;;0.40;0.30;;;-4.90;1.40;;;-4.57;100.00;95537.18;649905;216;31628;-77
2022/01/07 07:14:15;;;;;;;2.70;0.60;;;-4.90;1.40;;;-4.51;100.00;95538.93;647904;216;31770;-78
2022/01/07 07:17:03;;;;;;;0.60;0.50;;;-4.90;1.40;;;-4.56;100.00;95530.55;651141;216;31664;-76
2022/01/07 07:19:44;;;;;;;3.10;0.52;;;-5.00;1.40;;;-4.58;100.00;95535.60;648375;212;43394;-77
2022/01/07 07:22:32;;;;;;;0.50;0.50;;;-5.00;1.40;;;-4.57;100.00;95538.87;643355;216;42222;-77
2022/01/07 07:25:14;;;;;;;0.60;0.60;;;-5.00;1.40;;;-4.50;100.00;95542.67;645934;212;42282;-78
2022/01/07 07:27:56;;;;;;;0.50;0.50;;;-4.90;1.40;;;-4.40;100.00;95539.53;646940;216;32031;-78
2022/01/07 07:30:44;;;;;;;0.37;0.30;;;-4.80;1.40;;;-4.25;100.00;95540.15;642371;219;31669;-77
2022/01/07 07:38:45;;;;;;;1.30;0.60;;;-4.60;1.40;;;-4.18;100.00;95535.75;646881;216;42930;-77
2022/01/07 07:41:26;;;;;;;0.55;0.55;;;-4.60;1.40;;;-4.14;100.00;95543.35;646772;216;32107;-74
2022/01/07 07:44:14;;;;;;;0.90;0.50;;;-4.50;1.40;;;-4.07;100.00;95535.27;621458;226;42650;-78
2022/01/07 07:46:57;;;;;;;2.20;0.70;;;-4.40;1.40;;;-4.07;100.00;95536.09;648390;216;31636;-77
2022/01/07 07:49:38;;;;;;;0.90;0.80;;;-4.40;1.40;;;-4.00;100.00;95535.55;620877;222;31850;-78
2022/01/07 07:52:19;;;;;;;1.05;1.05;;;-4.40;1.40;;;-3.95;100.00;95541.29;647832;212;31561;-78
2022/01/07 07:55:07;;;;;;;0.40;0.40;;;-4.30;1.40;;;-3.86;100.00;95541.95;646331;216;31707;-77
2022/01/07 07:57:49;;;;;;;1.20;0.60;;;-4.20;1.40;;;-3.71;100.00;95536.59;648303;216;42179;-77
2022/01/07 08:00:31;;;;;;;0.50;0.40;;;-4.10;1.40;;;-3.60;100.00;95536.91;646000;212;31520;-77
2022/01/07 08:03:13;;;;;;;0.40;0.30;;;-4.00;1.40;;;-3.36;100.00;95536.98;632491;221;31666;-77
2022/01/07 08:08:35;;;;;;;1.33;0.62;;;-3.80;1.40;;;-3.26;100.00;95539.05;648515;216;42155;-78
2022/01/07 08:11:18;;;;;;;3.20;0.70;;;-3.80;1.40;;;-3.22;100.00;95538.44;647325;216;31539;-75
2022/01/07 08:16:53;;;;;;;0.70;0.70;;;-3.60;1.40;;;-3.00;100.00;95539.90;647749;216;31679;-78
2022/01/07 08:19:35;;;;;;;0.50;0.50;;;-3.60;1.40;;;-2.95;100.00;95535.20;620440;222;31985;-79
2022/01/07 08:22:23;;;;;;;0.60;0.60;;;-3.50;1.40;;;-2.83;100.00;95533.86;642098;220;32084;-77
2022/01/07 08:25:11;;;;;;;0.70;0.70;;;-3.40;1.40;;;-2.73;100.00;95538.35;646023;212;31548;-78
2022/01/07 08:27:54;;;;;;;0.90;0.90;;;-3.40;1.40;;;-2.73;100.00;95534.47;649613;212;31542;-78
2022/01/07 08:30:47;;;;;;;1.98;1.02;;;-3.40;1.40;;;-2.70;100.00;95534.56;641569;213;42111;-78
2022/01/07 08:35:57;;;;;;;0.70;0.70;;;-3.20;1.40;;;-2.43;100.00;95533.84;619818;221;32858;-78
2022/01/07 08:38:39;;;;;;;0.83;0.83;;;-3.10;1.40;;;-2.37;100.00;95534.41;621458;226;31876;-78
2022/01/07 08:41:21;;;;;;;0.80;0.80;;;-3.00;1.40;;;-2.24;100.00;95533.08;648092;212;31564;-78
2022/01/07 08:44:05;;;;;;;0.65;0.65;;;-2.90;1.40;;;-1.98;100.00;95527.28;649855;216;31568;-78
2022/01/07 08:46:47;;;;;;;0.90;0.60;;;-2.70;1.40;;;-1.82;100.00;95528.90;647218;212;31568;-78
2022/01/07 08:49:29;;;;;;;0.75;0.75;;;-2.60;1.40;;;-1.73;100.00;95527.97;621396;225;32024;-78
2022/01/07 08:52:15;;;;;;;0.60;0.50;;;-2.40;1.40;;;-1.53;100.00;95526.36;645829;216;31604;-75
2022/01/07 08:57:43;;;;;;;0.60;0.60;;;-2.20;1.40;;;-1.50;100.00;95529.38;647315;216;31515;-77
2022/01/07 09:00:27;;;;;;;0.60;0.60;;;-2.10;1.40;;;-1.08;100.00;95527.33;646577;213;31746;-78
2022/01/07 09:03:08;;;;;;;1.40;0.60;;;-1.80;1.40;;;-0.99;100.00;95529.50;620335;222;31816;-77
2022/01/07 09:05:50;;;;;;;1.10;1.00;;;-1.70;1.40;;;-1.01;100.00;95537.23;644024;216;31681;-79
2022/01/07 09:08:32;;;;;;;1.00;0.70;;;-1.60;1.40;;;-1.11;100.00;95530.45;620045;226;31874;-77
2022/01/07 09:11:14;;;;;;;0.90;0.60;;;-1.70;1.40;;;-0.88;100.00;95530.75;646405;216;31560;-78
2022/01/07 09:14:02;;;;;;;0.70;0.50;;;-1.30;1.40;;;-0.46;100.00;95530.25;646781;216;31534;-77
2022/01/07 09:16:45;;;;;;;0.55;0.55;;;-1.30;1.40;;;-0.71;100.00;95527.70;647297;216;31490;-78
2022/01/07 09:19:28;;;;;;;1.40;1.30;;;-1.50;1.40;;;-0.54;100.00;95529.45;646582;212;31736;-78
2022/01/07 09:22:10;;;;;;;1.20;0.95;;;-1.10;1.40;;;0.22;100.00;95522.14;648172;212;31539;-77
2022/01/07 09:24:52;;;;;;;1.00;0.90;;;-0.50;1.40;;;-0.27;100.00;95524.55;647711;216;31515;-79
2022/01/07 09:27:38;;;;;;;0.80;0.80;;;-1.10;1.40;;;-0.46;100.00;95515.66;646393;216;31786;-77
2022/01/07 09:30:24;;;;;;;3.50;1.10;;;-1.10;1.40;;;-0.42;100.00;95515.64;647924;212;31506;-78
2022/01/07 09:35:55;;;;;;;1.20;0.88;;;-0.80;1.40;;;-0.05;100.00;95519.39;647338;216;31695;-78
2022/01/07 09:38:37;;;;;;;1.80;0.80;;;-0.90;1.40;;;-0.59;100.00;95512.37;648763;212;42467;-78
2022/01/07 09:41:20;;;;;;;0.62;0.62;;;-1.10;1.40;;;-0.11;100.00;95521.98;649912;212;31516;-78
2022/01/07 09:46:42;;;;;;;1.20;0.80;;;-0.20;1.40;;;0.87;100.00;95519.22;646760;212;31505;-77
2022/01/07 09:49:33;;;;;;;1.00;0.70;;;0.40;1.40;;;0.88;100.00;95515.30;646979;216;31589;-78
2022/01/07 09:52:11;;;;;;;0.70;0.70;;;0.50;1.40;;;0.76;100.00;95518.30;647734;216;31580;-78
2022/01/07 09:54:55;;;;;;;1.20;1.10;;;0.30;1.40;;;1.06;100.00;95517.95;645858;216;31586;-77
2022/01/07 09:57:42;;;;;;;0.90;0.57;;;0.10;1.40;;;0.90;100.00;95516.81;618490;222;43102;-78
2022/01/07 10:00:24;;;;;;;1.10;0.80;;;-0.10;1.40;;;0.73;100.00;95509.61;646664;212;31580;-78
2022/01/07 10:03:08;;;;;;;0.60;0.50;;;-0.30;1.40;;;0.39;100.00;95508.95;631868;222;31697;-78
2022/01/07 10:05:56;;;;;;;0.60;0.60;;;0.10;1.40;;;0.91;100.00;95502.26;644407;216;31767;-75
2022/01/07 10:08:44;;;;;;;1.30;1.15;;;0.10;1.40;;;0.47;100.00;95500.98;647769;212;31535;-78
2022/01/07 10:11:26;;;;;;;0.50;0.50;;;-0.30;1.40;;;0.27;100.00;95501.45;631324;222;31910;-77
2022/01/07 10:14:16;;;;;;;0.90;0.70;;;-0.20;1.40;;;0.30;100.00;95499.85;646903;212;31595;-78
2022/01/07 10:16:57;;;;;;;0.80;0.62;;;-0.10;1.40;;;0.48;100.00;95489.80;647516;212;31540;-78
2022/01/07 10:19:41;;;;;;;2.15;1.75;;;0.10;1.40;;;0.66;100.00;95485.70;619422;226;32315;-77
2022/01/07 10:22:29;;;;;;;2.17;1.98;;;0.00;1.40;;;1.14;100.00;95486.92;643212;215;31607;-78
2022/01/07 10:25:10;;;;;;;0.70;0.50;;;0.50;1.40;;;1.77;100.00;95480.59;646805;216;31550;-78
2022/01/07 10:27:52;;;;;;;3.72;0.88;;;1.30;1.40;;;2.47;100.00;95468.42;648398;216;31504;-78
2022/01/07 10:30:40;;;;;;;1.15;1.05;;;1.70;1.40;;;4.00;100.00;95468.22;647064;216;32127;-78
2022/01/07 10:35:53;;;;;;;0.80;0.80;;;3.90;1.40;;;5.34;86.32;95456.58;646586;216;31555;-77
2022/01/07 10:38:48;;;;;;;0.70;0.70;;;4.30;1.40;;;6.08;81.93;95450.80;620347;226;32040;-78
2022/01/07 10:41:29;;;;;;;0.60;0.52;;;3.70;1.40;;;5.86;80.87;95447.34;647638;212;31689;-79
2022/01/07 10:44:13;;;;;;;0.60;0.40;;;3.20;1.40;;;4.21;85.39;95442.08;620121;226;32058;-79
2022/01/07 10:46:53;;;;;;;0.57;0.50;;;1.70;1.40;;;4.48;87.52;95437.09;619549;222;31888;-78
2022/01/07 10:49:37;;;;;;;1.00;0.57;;;2.50;1.40;;;4.03;84.09;95430.78;620670;226;31840;-79
2022/01/07 10:52:24;;;;;;;0.40;0.40;;;1.50;1.40;;;3.48;87.47;95431.12;655892;212;23461;-79
2022/01/07 10:55:13;;;;;;;0.70;0.40;;;1.80;1.40;;;2.80;89.11;95433.17;646810;216;31530;-76
2022/01/07 10:58:00;;;;;;;0.60;0.40;;;1.20;1.40;;;3.67;92.20;95428.94;649920;216;31516;-78
2022/01/07 11:00:48;;;;;;;0.83;0.67;;;2.10;1.40;;;3.16;88.89;95430.83;646491;212;31555;-76
2022/01/07 11:03:33;;;;;;;0.60;0.40;;;1.90;1.40;;;3.01;89.85;95427.36;646407;216;31530;-77
2022/01/07 11:08:35;;;;;;;0.80;0.70;;;1.20;1.40;;;3.41;90.99;95417.37;647478;216;31472;-75
2022/01/07 11:11:23;;;;;;;1.50;0.50;;;1.80;1.40;;;2.36;92.06;95414.31;621581;225;32260;-79
2022/01/07 11:14:11;;;;;;;1.33;0.70;;;0.60;1.40;;;2.23;96.87;95405.87;641367;215;32196;-78
2022/01/07 11:19:27;;;;;;;0.70;0.50;;;0.50;1.40;;;1.93;100.00;95406.41;618658;225;42511;-76
2022/01/07 11:22:12;;;;;;;1.40;0.60;;;0.50;1.40;;;1.73;100.00;95403.80;645200;216;31548;-75
2022/01/07 11:27:51;;;;;;;1.80;0.70;;;0.40;1.40;;;1.59;100.00;95401.53;646548;216;31830;-76
2022/01/07 11:30:40;;;;;;;1.02;0.65;;;0.50;1.40;;;2.01;100.00;95396.00;647727;216;31616;-79
2022/01/07 11:35:52;;;;;;;0.70;0.70;;;1.40;1.40;;;3.10;98.78;95397.64;648082;216;31521;-78
2022/01/07 11:38:40;;;;;;;1.65;1.35;;;1.80;1.40;;;2.91;96.40;95396.42;648090;216;31748;-78
2022/01/07 11:41:44;;;;;;;1.75;1.00;;;1.90;1.40;;;3.03;96.16;95397.59;646246;212;31591;-76
2022/01/07 11:44:27;;;;;;;1.00;0.80;;;1.60;1.40;;;3.19;95.89;95391.56;645968;216;32399;-75
2022/01/07 11:47:24;;;;;;;1.83;0.85;;;1.70;1.40;;;3.45;95.48;95394.02;647936;212;31565;-79
2022/01/07 11:50:04;;;;;;;0.90;0.73;;;1.70;1.40;;;2.53;97.58;95400.09;646512;212;31555;-79
2022/01/07 11:52:58;;;;;;;1.30;0.70;;;1.00;1.40;;;2.56;97.51;95398.19;646261;212;31525;-77
2022/01/07 11:55:46;;;;;;;0.80;0.80;;;1.00;1.40;;;2.12;100.00;95394.92;620420;222;31854;-78
2022/01/07 11:58:42;;;;;;;1.00;0.80;;;0.90;1.40;;;2.28;100.00;95395.26;620464;222;32447;-77
2022/01/07 12:01:29;;;;;;;2.40;0.70;;;1.30;1.40;;;2.11;100.00;95387.95;621149;222;32475;-78
2022/01/07 12:04:27;;;;;;;1.00;0.70;;;1.10;1.40;;;2.37;100.00;95388.22;646782;216;31484;-76
2022/01/07 12:07:15;;;;;;;1.25;0.82;;;1.30;1.40;;;1.98;100.00;95382.94;634699;216;31748;-78
2022/01/07 12:09:56;;;;;;;1.00;0.90;;;1.20;1.40;;;1.58;100.00;95383.84;621310;226;32042;-78